Time;durP1;ratioP1;P1;durP2;ratioP2;P2;SDS_P1;SDS_P2;PMS_P1;PMS_P2;Temp;Humidity;BMP_temperature;BMP_pressure;BME280_temperature;BME280_humidity;BME280_pressure;Samples;Min_cycle;Max_cycle;Signal;HPM_P1;HPM_P2
2022/09/27 00:01:01;;;;;;;16.17;1.38;;;;;;;9.59;nan;99542.59;5016380;28;20073;-60
2022/09/27 00:03:27;;;;;;;9.52;1.38;;;;;;;9.93;nan;99603.09;5034166;28;20438;-60
2022/09/27 00:06:26;;;;;;;7.57;1.20;;;;;;;9.50;nan;99536.03;5035515;28;20057;-60
2022/09/27 00:08:52;;;;;;;10.13;1.80;;;;;;;9.44;nan;99533.69;5034137;28;20069;-61
2022/09/27 00:11:26;;;;;;;13.15;2.47;;;;;;;9.72;nan;99587.53;5031737;28;20460;-59
2022/09/27 00:13:54;;;;;;;12.73;2.20;;;;;;;9.43;nan;99539.84;5023353;28;20057;-62
2022/09/27 00:16:20;;;;;;;15.05;2.45;;;;;;;9.44;nan;99546.81;5033921;28;20293;-61
2022/09/27 00:18:46;;;;;;;9.40;2.17;;;;;;;9.47;nan;99545.81;5038146;28;20051;-65
2022/09/27 00:21:12;;;;;;;8.60;1.98;;;;;;;9.90;nan;99620.78;5034064;28;20125;-66
2022/09/27 00:23:38;;;;;;;7.95;1.52;;;;;;;9.92;nan;99606.66;5028605;28;20033;-60
2022/09/27 00:26:04;;;;;;;11.93;2.45;;;;;;;9.91;nan;99604.94;5023757;28;20064;-59
2022/09/27 00:28:30;;;;;;;10.63;1.90;;;;;;;9.87;nan;99615.66;5021882;28;20034;-60
2022/09/27 00:30:56;;;;;;;11.20;2.05;;;;;;;9.53;nan;99556.88;5031485;28;20171;-60
2022/09/27 00:33:22;;;;;;;8.32;1.85;;;;;;;10.18;nan;99622.94;5008728;28;20034;-59
2022/09/27 00:35:47;;;;;;;8.43;2.38;;;;;;;10.29;nan;99629.38;5022702;28;20045;-57
2022/09/27 00:38:13;;;;;;;10.82;1.45;;;;;;;10.40;nan;99634.94;5034061;28;20030;-58
2022/09/27 00:40:39;;;;;;;11.43;2.08;;;;;;;10.36;nan;99625.47;5029458;28;20491;-56
2022/09/27 00:43:21;;;;;;;6.60;1.83;;;;;;;10.41;nan;99622.63;5018188;28;20034;-62
2022/09/27 00:45:50;;;;;;;11.35;2.80;;;;;;;10.48;nan;99630.13;5025802;28;20034;-59
2022/09/27 00:48:17;;;;;;;14.70;2.65;;;;;;;10.23;nan;99590.22;5026191;28;20042;-60
2022/09/27 00:50:45;;;;;;;12.57;2.00;;;;;;;10.14;nan;99580.16;5031913;28;20091;-57
2022/09/27 00:53:22;;;;;;;9.05;1.90;;;;;;;10.03;nan;99567.53;5030981;28;20108;-59
2022/09/27 00:55:51;;;;;;;13.00;2.15;;;;;;;10.43;nan;99647.94;5022167;28;20139;-59
2022/09/27 00:58:20;;;;;;;10.23;2.03;;;;;;;10.23;nan;99574.44;5016619;28;20029;-58
2022/09/27 01:00:47;;;;;;;8.57;2.50;;;;;;;10.67;nan;99641.44;5034444;28;20025;-59
2022/09/27 01:03:17;;;;;;;10.40;2.15;;;;;;;10.37;nan;99571.09;5033150;28;20026;-57
2022/09/27 01:05:43;;;;;;;8.30;1.77;;;;;;;10.79;nan;99645.19;5033156;28;20033;-58
2022/09/27 01:08:08;;;;;;;11.93;1.63;;;;;;;10.43;nan;99587.41;5034127;28;20039;-56
2022/09/27 01:10:39;;;;;;;10.48;1.80;;;;;;;10.80;nan;99646.88;5020345;28;20064;-58
2022/09/27 01:13:21;;;;;;;8.38;2.75;;;;;;;10.48;nan;99597.69;5029427;28;20052;-59
2022/09/27 01:16:08;;;;;;;8.45;1.23;;;;;;;10.91;nan;99662.13;5020648;28;20037;-58
2022/09/27 01:18:41;;;;;;;5.57;1.25;;;;;;;10.87;nan;99652.69;5032677;28;20030;-58
2022/09/27 01:21:21;;;;;;;8.40;1.88;;;;;;;10.85;nan;99663.31;5032054;28;20039;-58
2022/09/27 01:24:14;;;;;;;6.10;1.38;;;;;;;10.85;nan;99670.34;5014217;28;20092;-61
2022/09/27 01:26:43;;;;;;;7.07;1.45;;;;;;;10.87;nan;99671.13;5024242;28;20056;-59
2022/09/27 01:29:14;;;;;;;6.05;1.63;;;;;;;10.85;nan;99673.84;5013998;28;20452;-57
2022/09/27 01:32:08;;;;;;;10.43;1.35;;;;;;;10.52;nan;99612.41;5012743;28;20025;-59
2022/09/27 01:34:52;;;;;;;7.82;1.05;;;;;;;10.86;nan;99680.78;5013380;28;20052;-61
2022/09/27 01:37:22;;;;;;;5.80;1.27;;;;;;;10.67;nan;99646.69;5017209;28;20112;-57
2022/09/27 01:39:53;;;;;;;4.53;1.10;;;;;;;10.29;nan;99610.94;5029279;28;20034;-59
2022/09/27 01:42:26;;;;;;;6.70;1.25;;;;;;;10.63;nan;99684.59;5024729;28;20038;-61
2022/09/27 01:45:13;;;;;;;4.93;1.25;;;;;;;10.59;nan;99677.81;5028721;28;20041;-58
2022/09/27 01:47:55;;;;;;;7.38;1.20;;;;;;;10.53;nan;99682.53;5012185;28;20053;-58
2022/09/27 01:51:00;;;;;;;9.52;1.38;;;;;;;10.40;nan;99668.28;5024655;28;20030;-59
2022/09/27 01:53:33;;;;;;;6.38;1.40;;;;;;;10.06;nan;99613.84;5010983;28;20056;-58
2022/09/27 01:56:02;;;;;;;8.50;1.83;;;;;;;10.39;nan;99658.69;5022447;28;20049;-57
2022/09/27 01:58:38;;;;;;;5.15;1.33;;;;;;;9.99;nan;99612.44;5033754;28;20033;-57
2022/09/27 02:01:04;;;;;;;9.85;1.58;;;;;;;10.26;nan;99661.06;5031715;28;20025;-57
2022/09/27 02:03:34;;;;;;;8.20;1.77;;;;;;;9.75;nan;99577.69;5031964;28;20034;-58
2022/09/27 02:06:02;;;;;;;7.85;1.52;;;;;;;9.97;nan;99609.91;5022546;28;20065;-58
2022/09/27 02:08:37;;;;;;;6.07;1.25;;;;;;;10.16;nan;99628.25;5026197;28;20037;-57
2022/09/27 02:11:08;;;;;;;7.25;1.60;;;;;;;10.28;nan;99646.06;5016047;28;20499;-58
2022/09/27 02:13:37;;;;;;;;;;;;;;;10.37;nan;99652.63;5018362;28;20044;-56
2022/09/27 02:16:05;;;;;;;12.57;2.35;;;;;;;10.45;nan;99651.31;5028510;28;19924;-58
2022/09/27 02:18:45;;;;;;;10.20;2.13;;;;;;;10.40;nan;99673.53;5013272;28;20044;-61
2022/09/27 02:21:10;;;;;;;10.18;2.63;;;;;;;10.25;nan;99676.91;5014183;28;20105;-58
2022/09/27 02:23:43;;;;;;;11.15;2.83;;;;;;;9.94;nan;99640.75;5031712;28;20536;-58
2022/09/27 02:26:15;;;;;;;10.10;1.48;;;;;;;9.86;nan;99663.91;5032540;28;20073;-59
2022/09/27 02:28:44;;;;;;;3.70;1.13;;;;;;;9.73;nan;99679.41;5031599;28;20064;-53
2022/09/27 02:31:09;;;;;;;5.15;0.80;;;;;;;9.24;nan;99596.81;5030163;28;20029;-56
2022/09/27 02:33:39;;;;;;;9.02;1.13;;;;;;;9.10;nan;99591.34;5018666;28;20056;-57
2022/09/27 02:36:04;;;;;;;4.53;1.52;;;;;;;9.38;nan;99630.28;5022822;28;20026;-56
2022/09/27 02:38:30;;;;;;;4.32;1.35;;;;;;;9.38;nan;99644.28;5014709;28;20405;-59
2022/09/27 02:40:56;;;;;;;8.63;1.02;;;;;;;9.33;nan;99638.41;5029122;28;20033;-56
2022/09/27 02:43:29;;;;;;;5.30;1.08;;;;;;;9.11;nan;99615.84;5016658;28;20042;-58
2022/09/27 02:46:11;;;;;;;4.00;1.05;;;;;;;9.20;nan;99626.75;5023440;28;20033;-57
2022/09/27 02:48:42;;;;;;;6.45;1.33;;;;;;;9.08;nan;99621.22;5027112;28;20025;-60
2022/09/27 02:51:30;;;;;;;5.30;1.10;;;;;;;8.98;nan;99631.28;5015985;28;20056;-61
2022/09/27 02:54:05;;;;;;;8.35;1.70;;;;;;;8.89;nan;99631.69;5031012;28;20045;-60
2022/09/27 02:56:41;;;;;;;5.90;1.02;;;;;;;8.48;nan;99570.56;5037192;28;20060;-60
2022/09/27 02:59:17;;;;;;;6.57;1.20;;;;;;;8.73;nan;99643.75;5015778;28;20116;-58
2022/09/27 03:01:58;;;;;;;11.18;1.15;;;;;;;8.60;nan;99624.25;5027740;28;20370;-59
2022/09/27 03:04:54;;;;;;;6.97;1.10;;;;;;;8.54;nan;99627.13;5027544;28;20034;-59
2022/09/27 03:07:20;;;;;;;4.85;1.05;;;;;;;8.46;nan;99630.09;5015477;28;20037;-59
2022/09/27 03:09:48;;;;;;;7.43;1.30;;;;;;;8.03;nan;99562.00;5043371;28;20144;-53
2022/09/27 03:12:21;;;;;;;9.57;1.20;;;;;;;8.01;nan;99562.06;5026906;28;20046;-59
2022/09/27 03:14:46;;;;;;;10.70;1.92;;;;;;;8.36;nan;99613.88;5026388;28;20060;-59
2022/09/27 03:17:12;;;;;;;6.93;1.20;;;;;;;8.41;nan;99622.41;5014241;28;20041;-58
2022/09/27 03:19:37;;;;;;;10.13;1.90;;;;;;;8.34;nan;99581.66;5032081;28;20047;-57
2022/09/27 03:22:02;;;;;;;10.55;1.45;;;;;;;8.47;nan;99597.69;5022200;28;20386;-57
2022/09/27 03:24:28;;;;;;;12.38;1.60;;;;;;;8.26;nan;99547.00;5025203;28;20045;-60
2022/09/27 03:26:53;;;;;;;9.23;1.90;;;;;;;8.69;nan;99602.84;5015354;28;20042;-59
2022/09/27 03:29:19;;;;;;;9.68;1.15;;;;;;;8.35;nan;99536.13;5030651;28;20393;-56
2022/09/27 03:31:44;;;;;;;6.45;1.58;;;;;;;8.80;nan;99601.47;5031903;28;20034;-58
2022/09/27 03:34:09;;;;;;;7.65;1.48;;;;;;;8.78;nan;99613.81;5021318;28;20366;-58
2022/09/27 03:36:35;;;;;;;10.43;1.88;;;;;;;8.86;nan;99626.56;5026221;28;20132;-58
2022/09/27 03:39:00;;;;;;;8.48;1.30;;;;;;;8.36;nan;99540.47;5029315;28;20113;-59
2022/09/27 03:41:25;;;;;;;6.35;1.50;;;;;;;8.94;nan;99637.56;5016779;28;20032;-58
2022/09/27 03:43:51;;;;;;;9.02;1.40;;;;;;;8.98;nan;99629.50;5027364;28;20050;-57
2022/09/27 03:46:16;;;;;;;8.73;1.23;;;;;;;8.91;nan;99614.09;5011800;28;20042;-59
2022/09/27 03:48:42;;;;;;;7.30;1.30;;;;;;;8.84;nan;99592.50;5011776;28;20069;-60
2022/09/27 03:51:11;;;;;;;14.50;1.90;;;;;;;9.02;nan;99607.44;5028524;28;20068;-58
2022/09/27 03:53:36;;;;;;;7.68;1.42;;;;;;;9.02;nan;99612.69;5025662;28;20473;-59
2022/09/27 03:56:01;;;;;;;5.35;1.17;;;;;;;8.66;nan;99537.41;5003737;28;20049;-59
2022/09/27 03:58:27;;;;;;;3.30;1.00;;;;;;;9.12;nan;99605.25;5018685;28;20497;-58
2022/09/27 04:00:52;;;;;;;6.93;1.15;;;;;;;8.79;nan;99554.28;5028034;28;20382;-58
2022/09/27 04:03:18;;;;;;;7.13;1.58;;;;;;;8.73;nan;99557.19;5015150;28;20029;-60
2022/09/27 04:05:44;;;;;;;7.82;1.55;;;;;;;8.97;nan;99605.94;5024164;28;20040;-58
2022/09/27 04:08:10;;;;;;;10.07;1.63;;;;;;;9.17;nan;99631.28;5022331;28;20039;-55
2022/09/27 04:10:36;;;;;;;5.57;1.30;;;;;;;8.84;nan;99557.56;5017466;28;20042;-56
2022/09/27 04:13:02;;;;;;;8.30;1.45;;;;;;;8.73;nan;99549.31;5026599;28;20588;-58
2022/09/27 04:15:27;;;;;;;5.50;1.45;;;;;;;8.72;nan;99571.25;5016324;28;20046;-58
2022/09/27 04:17:52;;;;;;;5.38;1.05;;;;;;;9.02;nan;99614.44;5023065;28;20034;-60
2022/09/27 04:20:18;;;;;;;5.43;1.20;;;;;;;8.97;nan;99604.16;5022302;28;20030;-58
2022/09/27 04:22:44;;;;;;;6.70;1.85;;;;;;;8.95;nan;99610.41;5027254;28;20038;-58
2022/09/27 04:25:10;;;;;;;5.82;1.17;;;;;;;8.90;nan;99604.53;5014074;28;20132;-59
2022/09/27 04:27:35;;;;;;;5.63;1.10;;;;;;;8.88;nan;99593.22;5021090;28;20544;-57
2022/09/27 04:30:01;;;;;;;7.22;1.40;;;;;;;8.94;nan;99606.94;5025327;28;20037;-58
2022/09/27 04:32:26;;;;;;;3.20;0.95;;;;;;;8.88;nan;99606.34;5028092;28;20049;-58
2022/09/27 04:37:37;;;;;;;2.15;0.73;;;;;;;8.56;nan;99549.22;5020716;28;20060;-61
2022/09/27 04:40:03;;;;;;;6.22;1.67;;;;;;;8.91;nan;99619.34;5033496;28;20057;-57
2022/09/27 04:42:28;;;;;;;5.50;1.02;;;;;;;8.75;nan;99586.84;5038600;28;20064;-62
2022/09/27 04:44:53;;;;;;;3.35;0.95;;;;;;;8.95;nan;99616.53;5036153;28;20461;-59
2022/09/27 04:47:20;;;;;;;8.32;1.30;;;;;;;8.99;nan;99612.81;5018595;28;20033;-56
2022/09/27 04:49:46;;;;;;;5.63;1.20;;;;;;;9.01;nan;99621.50;5027277;28;20091;-60
2022/09/27 04:52:11;;;;;;;6.68;0.95;;;;;;;8.90;nan;99588.78;5024421;28;20037;-57
2022/09/27 04:54:37;;;;;;;6.10;1.20;;;;;;;9.05;nan;99615.16;5020513;28;20048;-58
2022/09/27 04:57:02;;;;;;;7.25;1.50;;;;;;;9.08;nan;99631.72;5030850;28;20091;-58
2022/09/27 04:59:28;;;;;;;4.78;1.00;;;;;;;9.06;nan;99637.03;5019294;28;20439;-58
2022/09/27 05:01:53;;;;;;;8.70;1.90;;;;;;;8.79;nan;99585.75;5025951;28;20393;-58
2022/09/27 05:04:19;;;;;;;3.95;0.90;;;;;;;9.13;nan;99630.59;5025270;28;20397;-57
2022/09/27 05:06:44;;;;;;;10.55;1.30;;;;;;;8.79;nan;99570.88;5018935;28;20096;-59
2022/09/27 05:09:09;;;;;;;3.35;0.68;;;;;;;9.08;nan;99627.28;5030773;28;20057;-57
2022/09/27 05:11:36;;;;;;;5.07;0.88;;;;;;;9.07;nan;99637.88;5019023;28;20041;-57
2022/09/27 05:14:03;;;;;;;7.25;1.30;;;;;;;8.68;nan;99580.16;5024579;28;20065;-57
2022/09/27 05:16:28;;;;;;;5.75;1.13;;;;;;;8.88;nan;99604.59;5026984;28;20034;-62
2022/09/27 05:18:53;;;;;;;6.45;1.00;;;;;;;9.01;nan;99645.13;5017711;28;20084;-56
2022/09/27 05:21:19;;;;;;;8.40;1.00;;;;;;;8.96;nan;99638.38;5029388;28;20030;-58
2022/09/27 05:23:44;;;;;;;5.68;1.10;;;;;;;9.00;nan;99639.91;5020078;28;20041;-58
2022/09/27 05:26:10;;;;;;;6.10;1.10;;;;;;;8.98;nan;99621.63;5021728;28;20034;-56
2022/09/27 05:28:36;;;;;;;6.88;1.60;;;;;;;8.84;nan;99595.13;5028054;28;20075;-58
2022/09/27 05:31:01;;;;;;;9.07;1.10;;;;;;;8.69;nan;99572.22;5025146;28;20053;-59
2022/09/27 05:33:27;;;;;;;9.32;1.27;;;;;;;9.09;nan;99629.00;5032730;28;20037;-61
2022/09/27 05:35:56;;;;;;;8.88;1.38;;;;;;;9.11;nan;99631.59;5032226;28;20047;-60
2022/09/27 05:38:22;;;;;;;10.07;1.65;;;;;;;9.11;nan;99631.59;5033774;28;20038;-58
2022/09/27 05:40:49;;;;;;;7.50;1.10;;;;;;;9.11;nan;99642.91;5033452;28;20121;-59
2022/09/27 05:43:18;;;;;;;4.95;1.00;;;;;;;8.93;nan;99605.22;5033860;28;20025;-60
2022/09/27 05:45:44;;;;;;;3.50;1.05;;;;;;;9.07;nan;99632.63;5032692;28;20029;-60
2022/09/27 05:48:11;;;;;;;7.90;1.60;;;;;;;8.57;nan;99543.91;5033753;28;20052;-59
2022/09/27 05:50:37;;;;;;;8.57;1.30;;;;;;;9.00;nan;99627.66;5032626;28;20464;-58
2022/09/27 05:53:02;;;;;;;6.07;1.30;;;;;;;8.66;nan;99569.75;5031501;28;20048;-60
2022/09/27 05:55:28;;;;;;;5.88;1.35;;;;;;;8.59;nan;99564.81;5031596;28;20484;-56
2022/09/27 05:57:59;;;;;;;6.75;1.42;;;;;;;8.86;nan;99616.94;5049133;28;20044;-60
2022/09/27 06:00:25;;;;;;;6.15;1.40;;;;;;;8.54;nan;99557.16;5033762;28;20137;-59
2022/09/27 06:02:58;;;;;;;4.75;1.35;;;;;;;8.90;nan;99622.91;5033506;28;20105;-59
2022/09/27 06:05:25;;;;;;;11.68;1.67;;;;;;;8.51;nan;99561.69;5033269;28;20469;-58
2022/09/27 06:07:51;;;;;;;8.35;1.23;;;;;;;8.89;nan;99627.28;5048812;28;20033;-59
2022/09/27 06:10:18;;;;;;;6.63;1.27;;;;;;;8.93;nan;99626.22;5033246;28;20395;-60
2022/09/27 06:12:43;;;;;;;8.10;1.15;;;;;;;8.56;nan;99559.72;5032184;28;20033;-60
2022/09/27 06:15:09;;;;;;;8.48;1.70;;;;;;;8.98;nan;99626.88;5033251;28;20053;-60
2022/09/27 06:17:34;;;;;;;4.72;1.17;;;;;;;9.01;nan;99625.88;5032065;28;20033;-61
2022/09/27 06:20:00;;;;;;;7.72;1.42;;;;;;;8.99;nan;99623.31;5033313;28;20091;-60
2022/09/27 06:22:25;;;;;;;5.05;1.50;;;;;;;8.72;nan;99584.34;5032789;28;20034;-60
2022/09/27 06:24:51;;;;;;;8.18;1.50;;;;;;;8.98;nan;99633.91;5032829;28;20515;-58
2022/09/27 06:27:17;;;;;;;6.43;1.80;;;;;;;8.62;nan;99576.03;5033212;28;20116;-58
2022/09/27 06:29:43;;;;;;;7.72;1.60;;;;;;;8.81;nan;99605.78;5032989;28;20431;-59
2022/09/27 06:32:09;;;;;;;6.25;1.10;;;;;;;8.61;nan;99563.00;5033031;28;20033;-63
2022/09/27 06:34:34;;;;;;;8.68;1.45;;;;;;;9.12;nan;99646.38;5032856;28;20041;-60
2022/09/27 06:37:00;;;;;;;6.05;1.10;;;;;;;8.76;nan;99585.91;5032754;28;20087;-61
2022/09/27 06:39:25;;;;;;;5.53;1.23;;;;;;;9.08;nan;99639.59;5048308;28;20481;-60
2022/09/27 06:41:56;;;;;;;3.85;0.90;;;;;;;8.65;nan;99575.03;5048363;28;20052;-60
2022/09/27 06:44:23;;;;;;;7.38;1.17;;;;;;;8.76;nan;99585.91;5032842;28;20121;-59
2022/09/27 06:46:49;;;;;;;4.95;0.82;;;;;;;9.02;nan;99638.06;5032352;28;20041;-59
2022/09/27 06:49:14;;;;;;;2.70;0.60;;;;;;;9.07;nan;99636.09;5032228;28;20045;-60
2022/09/27 06:51:41;;;;;;;5.38;0.80;;;;;;;9.21;nan;99677.47;5031287;28;20037;-63
2022/09/27 06:54:06;;;;;;;3.63;0.93;;;;;;;9.07;nan;99683.34;5031427;28;20041;-60
2022/09/27 06:56:31;;;;;;;1.73;0.40;;;;;;;8.96;nan;99670.69;5032472;28;20408;-60
2022/09/27 07:01:41;;;;;;;4.75;1.05;;;;;;;8.74;nan;99719.78;5032558;28;20092;-58
2022/09/27 07:04:08;;;;;;;9.65;1.17;;;;;;;8.67;nan;99699.97;5032585;28;20420;-60
2022/09/27 07:06:34;;;;;;;6.07;1.48;;;;;;;8.29;nan;99636.03;5047884;28;20041;-58
2022/09/27 07:08:59;;;;;;;7.28;1.58;;;;;;;8.69;nan;99689.44;5029953;28;20029;-59
2022/09/27 07:11:25;;;;;;;7.20;1.83;;;;;;;8.34;nan;99627.97;5044849;28;20037;-63
2022/09/27 07:13:50;;;;;;;9.73;2.20;;;;;;;8.79;nan;99704.69;5029689;28;20084;-59
2022/09/27 07:16:16;;;;;;;10.50;1.45;;;;;;;8.85;nan;99716.69;5030022;28;20365;-61
2022/09/27 07:18:41;;;;;;;8.05;1.42;;;;;;;8.80;nan;99702.94;5030058;28;20516;-61
2022/09/27 07:21:11;;;;;;;9.38;1.58;;;;;;;8.50;nan;99629.03;5031996;28;20087;-61
2022/09/27 07:23:36;;;;;;;7.00;1.23;;;;;;;8.99;nan;99704.69;5047259;28;20052;-60
2022/09/27 07:26:03;;;;;;;6.65;1.70;;;;;;;8.75;nan;99655.91;5047856;28;20045;-63
2022/09/27 07:28:29;;;;;;;6.95;1.38;;;;;;;9.04;nan;99704.50;5032213;28;20057;-61
2022/09/27 07:30:55;;;;;;;10.32;2.30;;;;;;;9.12;nan;99699.75;5032163;28;20090;-59
2022/09/27 07:33:21;;;;;;;7.47;1.38;;;;;;;9.19;nan;99710.84;5047441;28;20029;-62
2022/09/27 07:35:46;;;;;;;11.48;1.38;;;;;;;9.16;nan;99697.84;5032533;28;20052;-62
2022/09/27 07:38:15;;;;;;;9.93;2.10;;;;;;;9.28;nan;99697.31;5032298;28;20101;-62
2022/09/27 07:40:41;;;;;;;10.55;2.70;;;;;;;9.34;nan;99676.84;5032343;28;20120;-61
2022/09/27 07:43:11;;;;;;;8.77;1.83;;;;;;;9.38;nan;99670.53;5030764;28;20176;-60
2022/09/27 07:45:36;;;;;;;9.10;1.70;;;;;;;9.30;nan;99622.78;5031910;28;20087;-59
2022/09/27 07:48:09;;;;;;;10.15;1.92;;;;;;;9.70;nan;99679.56;5031805;28;20515;-60
2022/09/27 07:50:35;;;;;;;5.93;1.45;;;;;;;9.37;nan;99611.06;5032498;28;20171;-63
2022/09/27 07:53:00;;;;;;;10.05;1.60;;;;;;;9.81;nan;99671.16;5030867;28;20501;-60
2022/09/27 07:55:25;;;;;;;13.23;2.22;;;;;;;9.54;nan;99626.88;5031849;28;20038;-61
2022/09/27 07:57:51;;;;;;;5.38;1.83;;;;;;;9.55;nan;99622.47;5047417;28;20033;-62
2022/09/27 08:00:20;;;;;;;10.75;1.90;;;;;;;9.76;nan;99655.63;5035277;28;20396;-63
2022/09/27 08:02:45;;;;;;;9.93;1.80;;;;;;;10.15;nan;99708.09;5035886;28;20061;-58
2022/09/27 08:05:12;;;;;;;11.60;2.17;;;;;;;10.22;nan;99698.97;5036023;28;20119;-59
2022/09/27 08:07:38;;;;;;;7.53;1.45;;;;;;;10.29;nan;99697.75;5051387;28;20415;-59
2022/09/27 08:10:05;;;;;;;10.90;1.95;;;;;;;10.38;nan;99699.94;5034665;28;20041;-62
2022/09/27 08:12:30;;;;;;;8.25;1.60;;;;;;;10.40;nan;99698.06;5035700;28;20049;-61
2022/09/27 08:15:00;;;;;;;8.63;1.70;;;;;;;10.43;nan;99712.84;5034210;28;20497;-60
2022/09/27 08:17:28;;;;;;;12.80;2.55;;;;;;;10.46;nan;99715.31;5035523;28;20091;-62
2022/09/27 08:19:54;;;;;;;10.48;2.13;;;;;;;10.12;nan;99679.28;5050975;28;20038;-60
2022/09/27 08:22:20;;;;;;;8.23;1.55;;;;;;;10.32;nan;99737.06;5035688;28;20034;-62
2022/09/27 08:24:46;;;;;;;12.13;1.75;;;;;;;10.11;nan;99712.59;5035492;28;20507;-61
2022/09/27 08:27:12;;;;;;;5.55;1.30;;;;;;;10.19;nan;99743.00;5035319;28;20136;-63
2022/09/27 08:29:40;;;;;;;5.30;1.23;;;;;;;9.51;nan;99663.81;5050692;28;20037;-59
2022/09/27 08:32:09;;;;;;;6.68;1.42;;;;;;;9.87;nan;99733.94;5050388;28;20476;-62
2022/09/27 08:34:34;;;;;;;5.20;0.98;;;;;;;9.73;nan;99721.44;5035350;28;20485;-59
2022/09/27 08:36:59;;;;;;;8.23;1.42;;;;;;;9.74;nan;99727.56;5035407;28;20033;-62
2022/09/27 08:39:25;;;;;;;9.30;1.10;;;;;;;9.42;nan;99677.38;5035074;28;20068;-61
2022/09/27 08:42:06;;;;;;;6.65;2.17;;;;;;;9.71;nan;99718.06;5035265;28;20038;-61
2022/09/27 08:44:53;;;;;;;7.05;1.65;;;;;;;9.52;nan;99667.28;5050708;28;20204;-61
2022/09/27 08:47:28;;;;;;;8.73;1.52;;;;;;;9.56;nan;99680.22;5035066;28;20465;-61
2022/09/27 08:50:03;;;;;;;8.95;1.75;;;;;;;9.97;nan;99738.72;5050111;28;20029;-60
2022/09/27 08:52:34;;;;;;;6.93;1.40;;;;;;;9.63;nan;99677.28;5034827;28;20029;-61
2022/09/27 08:55:00;;;;;;;;;;;;;;;10.05;nan;99728.69;5034137;28;20044;-63
2022/09/27 08:57:26;;;;;;;12.55;1.55;;;;;;;9.71;nan;99665.50;5017211;28;19913;-62
2022/09/27 09:00:07;;;;;;;6.05;1.10;;;;;;;10.07;nan;99729.44;5034743;28;20254;-63
2022/09/27 09:02:33;;;;;;;8.07;1.63;;;;;;;10.00;nan;99706.16;5034480;28;20462;-63
2022/09/27 09:05:08;;;;;;;7.60;1.70;;;;;;;10.03;nan;99698.13;5033270;28;20068;-60
2022/09/27 09:07:46;;;;;;;5.28;1.52;;;;;;;10.34;nan;99708.03;5016674;28;20124;-61
2022/09/27 09:13:57;;;;;;;7.30;1.63;;;;;;;10.46;nan;99653.03;5033613;28;20040;-61
2022/09/27 09:16:32;;;;;;;5.97;1.15;;;;;;;11.07;nan;99723.59;5032742;28;20099;-64
2022/09/27 09:19:25;;;;;;;9.18;1.33;;;;;;;10.93;nan;99641.84;5032994;28;20048;-63
2022/09/27 09:22:02;;;;;;;8.63;2.05;;;;;;;11.59;nan;99714.63;5034485;28;20033;-65
2022/09/27 09:24:52;;;;;;;8.77;1.88;;;;;;;11.73;nan;99711.28;5049961;28;20069;-64
2022/09/27 09:27:55;;;;;;;8.20;1.98;;;;;;;11.57;nan;99724.41;5034140;28;20029;-60
2022/09/27 09:30:24;;;;;;;16.00;3.13;;;;;;;11.24;nan;99699.84;5034096;28;20033;-63
2022/09/27 09:33:13;;;;;;;11.05;2.70;;;;;;;11.31;nan;99748.66;5049537;28;20373;-61
2022/09/27 09:35:51;;;;;;;7.28;1.63;;;;;;;11.06;nan;99753.50;5033445;28;20049;-62
2022/09/27 09:39:06;;;;;;;8.38;1.20;;;;;;;10.71;nan;99761.38;5032811;28;20133;-61
2022/09/27 09:41:42;;;;;;;3.47;1.05;;;;;;;10.14;nan;99693.22;5028272;28;20128;-61
2022/09/27 09:44:17;;;;;;;4.57;0.98;;;;;;;9.85;nan;99693.75;5034204;28;20042;-62
2022/09/27 09:46:46;;;;;;;4.47;0.95;;;;;;;9.96;nan;99742.25;5032500;28;20124;-64
2022/09/27 09:49:15;;;;;;;4.57;0.95;;;;;;;10.00;nan;99775.38;5049525;28;20033;-61
2022/09/27 09:51:46;;;;;;;2.58;0.80;;;;;;;9.55;nan;99710.03;5033786;28;20040;-63
2022/09/27 09:54:19;;;;;;;;;;;;;;;9.83;nan;99767.41;5049580;28;20038;-61
2022/09/27 09:56:48;;;;;;;6.30;1.15;;;;;;;9.40;nan;99708.09;5032526;28;20012;-61
2022/09/27 09:59:19;;;;;;;7.25;1.23;;;;;;;9.73;nan;99774.00;5032146;28;20025;-63
2022/09/27 10:01:49;;;;;;;3.15;1.10;;;;;;;9.57;nan;99759.88;5032326;28;20033;-61
2022/09/27 10:04:22;;;;;;;4.15;1.00;;;;;;;9.64;nan;99787.56;5033861;28;20052;-63
2022/09/27 10:06:48;;;;;;;8.70;1.15;;;;;;;9.40;nan;99765.00;5032013;28;20460;-62
2022/09/27 10:09:14;;;;;;;5.35;1.15;;;;;;;9.44;nan;99767.44;5033325;28;20068;-60
2022/09/27 10:11:44;;;;;;;1.90;0.43;;;;;;;9.24;nan;99749.09;5049083;28;20041;-65
2022/09/27 10:14:12;;;;;;;3.47;1.13;;;;;;;9.19;nan;99766.84;5048320;28;20099;-62
2022/09/27 10:16:41;;;;;;;4.93;0.82;;;;;;;8.96;nan;99754.69;5033458;28;20112;-63
2022/09/27 10:19:07;;;;;;;3.97;1.20;;;;;;;8.74;nan;99721.56;5033229;28;20029;-63
2022/09/27 10:21:34;;;;;;;3.72;0.80;;;;;;;8.68;nan;99719.19;5031910;28;20066;-63
2022/09/27 10:24:12;;;;;;;5.72;1.20;;;;;;;8.94;nan;99763.53;5048577;28;20060;-61
2022/09/27 10:26:39;;;;;;;3.95;1.08;;;;;;;8.56;nan;99688.22;5031760;28;20068;-62
2022/09/27 10:29:21;;;;;;;4.97;1.38;;;;;;;8.94;nan;99758.28;5032040;28;20037;-63
2022/09/27 10:31:48;;;;;;;4.80;1.10;;;;;;;8.78;nan;99715.28;5048345;28;20064;-63
2022/09/27 10:34:28;;;;;;;4.55;1.13;;;;;;;8.98;nan;99741.50;5033059;28;20028;-64
2022/09/27 10:37:12;;;;;;;6.32;0.90;;;;;;;8.64;nan;99681.72;5032851;28;20033;-65
2022/09/27 10:39:39;;;;;;;3.53;1.00;;;;;;;9.05;nan;99743.78;5033011;28;20029;-64
2022/09/27 10:42:35;;;;;;;4.30;1.30;;;;;;;8.77;nan;99684.69;5032898;28;20060;-64
2022/09/27 10:45:25;;;;;;;9.65;2.00;;;;;;;9.14;nan;99747.78;5032688;28;20535;-62
2022/09/27 10:47:50;;;;;;;3.88;1.38;;;;;;;9.05;nan;99725.41;5032894;28;20044;-63
2022/09/27 10:50:24;;;;;;;7.05;2.08;;;;;;;9.20;nan;99757.16;5031638;28;20033;-64
2022/09/27 10:53:25;;;;;;;5.18;1.75;;;;;;;8.89;nan;99686.78;5032045;28;20121;-63
2022/09/27 10:55:51;;;;;;;5.23;1.70;;;;;;;9.32;nan;99739.09;5032397;28;20053;-63
2022/09/27 10:58:23;;;;;;;6.68;1.88;;;;;;;9.31;nan;99721.63;5032724;28;20453;-65
2022/09/27 11:01:02;;;;;;;9.07;2.08;;;;;;;9.38;nan;99722.22;5032560;28;20469;-65
2022/09/27 11:03:29;;;;;;;4.35;1.45;;;;;;;9.22;nan;99661.69;5047837;28;20032;-63
2022/09/27 11:05:55;;;;;;;5.00;1.25;;;;;;;9.70;nan;99707.59;5047631;28;20104;-66
2022/09/27 11:08:29;;;;;;;6.65;2.13;;;;;;;9.93;nan;99721.38;5032758;28;20116;-64
2022/09/27 11:11:15;;;;;;;4.93;1.48;;;;;;;10.18;nan;99726.34;5030913;28;20029;-65
2022/09/27 11:13:41;;;;;;;4.07;1.90;;;;;;;10.31;nan;99721.31;5047586;28;20100;-64
2022/09/27 11:16:29;;;;;;;6.15;1.33;;;;;;;10.52;nan;99707.97;5047704;28;20029;-63
2022/09/27 11:19:05;;;;;;;6.00;2.13;;;;;;;10.58;nan;99714.72;5047247;28;20443;-64
2022/09/27 11:21:41;;;;;;;5.65;2.08;;;;;;;10.69;nan;99712.38;5032482;28;20033;-65
2022/09/27 11:24:22;;;;;;;4.47;1.45;;;;;;;10.86;nan;99712.38;5032217;28;20558;-62
2022/09/27 11:26:59;;;;;;;6.70;1.77;;;;;;;11.02;nan;99731.75;5047110;28;20495;-65
2022/09/27 11:29:34;;;;;;;9.70;1.55;;;;;;;11.05;nan;99713.16;5032065;28;20041;-65
2022/09/27 11:32:20;;;;;;;2.95;1.45;;;;;;;11.17;nan;99707.25;5032062;28;20033;-67
2022/09/27 11:35:21;;;;;;;5.50;1.70;;;;;;;10.84;nan;99655.47;5037121;28;20033;-63
2022/09/27 11:38:14;;;;;;;4.43;1.40;;;;;;;11.22;nan;99735.97;5038261;28;20505;-64
2022/09/27 11:40:57;;;;;;;5.60;1.60;;;;;;;11.22;nan;99691.19;5038879;28;20033;-64
2022/09/27 11:43:42;;;;;;;3.78;1.60;;;;;;;11.03;nan;99651.78;5038086;28;20063;-67
2022/09/27 11:46:07;;;;;;;3.00;1.35;;;;;;;11.52;nan;99717.69;5038413;28;20034;-64
2022/09/27 11:48:46;;;;;;;3.33;1.10;;;;;;;11.61;nan;99722.47;5038886;28;20033;-64
2022/09/27 11:51:26;;;;;;;3.30;1.45;;;;;;;11.70;nan;99725.47;5054104;28;20038;-63
2022/09/27 11:54:09;;;;;;;3.43;1.17;;;;;;;11.61;nan;99707.50;5038512;28;20200;-65
2022/09/27 11:56:52;;;;;;;2.40;1.08;;;;;;;11.74;nan;99713.81;5038711;28;20350;-65
2022/09/27 11:59:20;;;;;;;4.65;1.20;;;;;;;11.81;nan;99720.47;5054183;28;20091;-63
2022/09/27 12:01:53;;;;;;;4.22;1.55;;;;;;;11.93;nan;99712.81;5038626;28;20029;-63
2022/09/27 12:04:24;;;;;;;5.55;1.20;;;;;;;12.07;nan;99718.16;5053819;28;20107;-64
2022/09/27 12:07:30;;;;;;;2.97;0.98;;;;;;;12.22;nan;99709.41;5038741;28;20051;-64
2022/09/27 12:10:00;;;;;;;4.68;1.27;;;;;;;12.29;nan;99673.78;5038444;28;20037;-63
2022/09/27 12:12:28;;;;;;;3.83;1.20;;;;;;;12.66;nan;99704.19;5037852;28;20040;-65
2022/09/27 12:14:57;;;;;;;6.53;1.52;;;;;;;12.56;nan;99659.00;5053602;28;20073;-65
2022/09/27 12:17:26;;;;;;;3.90;1.60;;;;;;;12.86;nan;99664.25;5053807;28;20539;-64
2022/09/27 12:19:54;;;;;;;6.10;1.70;;;;;;;13.22;nan;99667.31;5036629;28;20052;-62
2022/09/27 12:22:27;;;;;;;4.65;1.50;;;;;;;13.66;nan;99677.75;5053783;28;20029;-62